sensor_id;sensor_type;location;lat;lon;timestamp;P1;durP1;ratioP1;P2;durP2;ratioP2
17345;SDS011;8790;53.590;10.002;2023-04-24T00:00:58;8.43;;;6.90;;
17345;SDS011;8790;53.590;10.002;2023-04-24T00:03:31;7.47;;;6.73;;
17345;SDS011;8790;53.590;10.002;2023-04-24T00:06:03;8.40;;;6.83;;
17345;SDS011;8790;53.590;10.002;2023-04-24T00:08:36;7.47;;;6.60;;
17345;SDS011;8790;53.590;10.002;2023-04-24T00:11:08;9.43;;;6.70;;
17345;SDS011;8790;53.590;10.002;2023-04-24T00:13:40;7.73;;;6.90;;
17345;SDS011;8790;53.590;10.002;2023-04-24T00:16:12;7.63;;;6.93;;
17345;SDS011;8790;53.590;10.002;2023-04-24T00:18:43;7.17;;;6.47;;
17345;SDS011;8790;53.590;10.002;2023-04-24T00:21:17;7.60;;;6.20;;
17345;SDS011;8790;53.590;10.002;2023-04-24T00:23:50;8.90;;;6.93;;
17345;SDS011;8790;53.590;10.002;2023-04-24T00:26:23;6.83;;;5.93;;
17345;SDS011;8790;53.590;10.002;2023-04-24T00:28:54;8.50;;;6.67;;
17345;SDS011;8790;53.590;10.002;2023-04-24T00:31:26;7.07;;;6.37;;
17345;SDS011;8790;53.590;10.002;2023-04-24T00:33:58;6.33;;;5.70;;
17345;SDS011;8790;53.590;10.002;2023-04-24T00:36:30;6.20;;;5.60;;
17345;SDS011;8790;53.590;10.002;2023-04-24T00:39:04;7.17;;;5.93;;
17345;SDS011;8790;53.590;10.002;2023-04-24T00:41:35;6.77;;;6.07;;
17345;SDS011;8790;53.590;10.002;2023-04-24T00:44:07;6.63;;;6.03;;
17345;SDS011;8790;53.590;10.002;2023-04-24T00:46:39;6.50;;;5.90;;
17345;SDS011;8790;53.590;10.002;2023-04-24T00:49:11;7.27;;;6.50;;
17345;SDS011;8790;53.590;10.002;2023-04-24T00:51:44;6.60;;;5.97;;
17345;SDS011;8790;53.590;10.002;2023-04-24T00:54:18;7.03;;;6.30;;
17345;SDS011;8790;53.590;10.002;2023-04-24T00:56:50;6.47;;;5.87;;
17345;SDS011;8790;53.590;10.002;2023-04-24T00:59:22;6.63;;;6.13;;
17345;SDS011;8790;53.590;10.002;2023-04-24T01:01:54;7.27;;;6.57;;
17345;SDS011;8790;53.590;10.002;2023-04-24T01:04:26;7.23;;;6.63;;
17345;SDS011;8790;53.590;10.002;2023-04-24T01:06:58;7.30;;;6.60;;
17345;SDS011;8790;53.590;10.002;2023-04-24T01:09:32;6.87;;;6.17;;
17345;SDS011;8790;53.590;10.002;2023-04-24T01:12:04;7.13;;;6.43;;
17345;SDS011;8790;53.590;10.002;2023-04-24T01:14:36;6.93;;;6.27;;
17345;SDS011;8790;53.590;10.002;2023-04-24T01:17:08;6.60;;;6.00;;
17345;SDS011;8790;53.590;10.002;2023-04-24T01:19:39;6.50;;;5.80;;
17345;SDS011;8790;53.590;10.002;2023-04-24T01:22:13;6.77;;;5.03;;
17345;SDS011;8790;53.590;10.002;2023-04-24T01:24:46;6.10;;;5.50;;
17345;SDS011;8790;53.590;10.002;2023-04-24T01:27:18;6.30;;;5.70;;
17345;SDS011;8790;53.590;10.002;2023-04-24T01:29:50;6.03;;;5.53;;
17345;SDS011;8790;53.590;10.002;2023-04-24T01:32:22;6.93;;;5.20;;
17345;SDS011;8790;53.590;10.002;2023-04-24T01:34:54;5.30;;;4.60;;
17345;SDS011;8790;53.590;10.002;2023-04-24T01:37:28;5.20;;;4.70;;
17345;SDS011;8790;53.590;10.002;2023-04-24T01:40:00;4.93;;;4.50;;
17345;SDS011;8790;53.590;10.002;2023-04-24T01:42:34;4.80;;;4.27;;
17345;SDS011;8790;53.590;10.002;2023-04-24T01:45:06;6.23;;;4.30;;
17345;SDS011;8790;53.590;10.002;2023-04-24T01:47:42;4.63;;;4.23;;
17345;SDS011;8790;53.590;10.002;2023-04-24T01:50:15;4.90;;;4.47;;
17345;SDS011;8790;53.590;10.002;2023-04-24T01:52:48;4.63;;;4.23;;
17345;SDS011;8790;53.590;10.002;2023-04-24T01:55:20;4.30;;;3.90;;
17345;SDS011;8790;53.590;10.002;2023-04-24T01:57:51;4.90;;;4.20;;
17345;SDS011;8790;53.590;10.002;2023-04-24T02:00:26;5.17;;;4.67;;
17345;SDS011;8790;53.590;10.002;2023-04-24T02:02:57;4.97;;;4.47;;
17345;SDS011;8790;53.590;10.002;2023-04-24T02:05:31;4.07;;;3.77;;
17345;SDS011;8790;53.590;10.002;2023-04-24T02:08:04;3.90;;;3.60;;
17345;SDS011;8790;53.590;10.002;2023-04-24T02:10:36;4.70;;;3.87;;
17345;SDS011;8790;53.590;10.002;2023-04-24T02:13:09;3.63;;;3.27;;
17345;SDS011;8790;53.590;10.002;2023-04-24T02:15:41;4.03;;;3.43;;
17345;SDS011;8790;53.590;10.002;2023-04-24T02:18:13;3.30;;;3.00;;
17345;SDS011;8790;53.590;10.002;2023-04-24T02:20:45;3.37;;;3.07;;
17345;SDS011;8790;53.590;10.002;2023-04-24T02:23:19;2.77;;;2.57;;
17345;SDS011;8790;53.590;10.002;2023-04-24T02:25:51;3.13;;;2.60;;
17345;SDS011;8790;53.590;10.002;2023-04-24T02:28:25;3.00;;;2.70;;
17345;SDS011;8790;53.590;10.002;2023-04-24T02:30:57;2.73;;;2.53;;
17345;SDS011;8790;53.590;10.002;2023-04-24T02:33:30;2.90;;;2.70;;
17345;SDS011;8790;53.590;10.002;2023-04-24T02:36:01;3.57;;;2.70;;
17345;SDS011;8790;53.590;10.002;2023-04-24T02:38:35;3.47;;;2.77;;
17345;SDS011;8790;53.590;10.002;2023-04-24T02:41:07;3.57;;;3.10;;
17345;SDS011;8790;53.590;10.002;2023-04-24T02:43:38;3.50;;;2.87;;
17345;SDS011;8790;53.590;10.002;2023-04-24T02:46:10;4.13;;;3.23;;
17345;SDS011;8790;53.590;10.002;2023-04-24T02:48:42;4.27;;;3.00;;
17345;SDS011;8790;53.590;10.002;2023-04-24T02:51:13;3.30;;;2.87;;
17345;SDS011;8790;53.590;10.002;2023-04-24T02:53:47;4.53;;;3.13;;
17345;SDS011;8790;53.590;10.002;2023-04-24T02:56:19;4.13;;;3.27;;
17345;SDS011;8790;53.590;10.002;2023-04-24T02:58:51;2.90;;;2.70;;
17345;SDS011;8790;53.590;10.002;2023-04-24T03:01:22;3.67;;;3.10;;
17345;SDS011;8790;53.590;10.002;2023-04-24T03:03:55;2.83;;;2.27;;
17345;SDS011;8790;53.590;10.002;2023-04-24T03:06:26;2.97;;;2.77;;
17345;SDS011;8790;53.590;10.002;2023-04-24T03:08:59;3.10;;;2.50;;
17345;SDS011;8790;53.590;10.002;2023-04-24T03:11:31;2.70;;;2.50;;
17345;SDS011;8790;53.590;10.002;2023-04-24T03:14:03;3.37;;;2.40;;
17345;SDS011;8790;53.590;10.002;2023-04-24T03:16:34;3.00;;;2.37;;
17345;SDS011;8790;53.590;10.002;2023-04-24T03:19:06;2.50;;;2.30;;
17345;SDS011;8790;53.590;10.002;2023-04-24T03:21:45;2.07;;;1.97;;
17345;SDS011;8790;53.590;10.002;2023-04-24T03:24:18;2.40;;;2.20;;
17345;SDS011;8790;53.590;10.002;2023-04-24T03:26:50;2.70;;;2.30;;
17345;SDS011;8790;53.590;10.002;2023-04-24T03:29:42;2.30;;;2.10;;
17345;SDS011;8790;53.590;10.002;2023-04-24T03:32:15;2.57;;;2.37;;
17345;SDS011;8790;53.590;10.002;2023-04-24T03:34:47;2.30;;;2.10;;
17345;SDS011;8790;53.590;10.002;2023-04-24T03:37:20;2.17;;;1.97;;
17345;SDS011;8790;53.590;10.002;2023-04-24T03:40:03;2.80;;;2.40;;
17345;SDS011;8790;53.590;10.002;2023-04-24T03:42:39;3.10;;;2.10;;
17345;SDS011;8790;53.590;10.002;2023-04-24T03:45:11;2.00;;;1.90;;
17345;SDS011;8790;53.590;10.002;2023-04-24T03:47:46;2.30;;;2.10;;
17345;SDS011;8790;53.590;10.002;2023-04-24T03:50:18;2.37;;;2.17;;
17345;SDS011;8790;53.590;10.002;2023-04-24T03:52:51;1.90;;;1.80;;
17345;SDS011;8790;53.590;10.002;2023-04-24T03:55:38;2.73;;;2.00;;
17345;SDS011;8790;53.590;10.002;2023-04-24T03:58:10;2.97;;;2.40;;
17345;SDS011;8790;53.590;10.002;2023-04-24T04:00:43;2.23;;;1.97;;
17345;SDS011;8790;53.590;10.002;2023-04-24T04:03:36;2.40;;;2.20;;
17345;SDS011;8790;53.590;10.002;2023-04-24T04:06:08;2.20;;;2.00;;
17345;SDS011;8790;53.590;10.002;2023-04-24T04:08:43;2.03;;;1.93;;
17345;SDS011;8790;53.590;10.002;2023-04-24T04:11:16;2.80;;;1.93;;
17345;SDS011;8790;53.590;10.002;2023-04-24T04:13:49;1.97;;;1.77;;
17345;SDS011;8790;53.590;10.002;2023-04-24T04:16:24;3.60;;;1.87;;
17345;SDS011;8790;53.590;10.002;2023-04-24T04:19:02;1.80;;;1.70;;
17345;SDS011;8790;53.590;10.002;2023-04-24T04:21:34;1.97;;;1.87;;
17345;SDS011;8790;53.590;10.002;2023-04-24T04:24:38;1.70;;;1.60;;
17345;SDS011;8790;53.590;10.002;2023-04-24T04:27:13;2.17;;;1.60;;
17345;SDS011;8790;53.590;10.002;2023-04-24T04:29:53;2.00;;;1.80;;
17345;SDS011;8790;53.590;10.002;2023-04-24T04:32:28;1.60;;;1.50;;
17345;SDS011;8790;53.590;10.002;2023-04-24T04:34:59;2.00;;;1.63;;
17345;SDS011;8790;53.590;10.002;2023-04-24T04:37:34;3.00;;;1.47;;
17345;SDS011;8790;53.590;10.002;2023-04-24T04:40:19;1.80;;;1.70;;
17345;SDS011;8790;53.590;10.002;2023-04-24T04:42:57;1.80;;;1.70;;
17345;SDS011;8790;53.590;10.002;2023-04-24T04:45:32;1.73;;;1.63;;
17345;SDS011;8790;53.590;10.002;2023-04-24T04:48:35;1.60;;;1.50;;
17345;SDS011;8790;53.590;10.002;2023-04-24T04:51:09;1.57;;;1.47;;
17345;SDS011;8790;53.590;10.002;2023-04-24T04:53:41;1.70;;;1.60;;
17345;SDS011;8790;53.590;10.002;2023-04-24T04:56:13;2.13;;;1.90;;
17345;SDS011;8790;53.590;10.002;2023-04-24T04:58:49;1.97;;;1.60;;
17345;SDS011;8790;53.590;10.002;2023-04-24T05:01:22;2.93;;;1.80;;
17345;SDS011;8790;53.590;10.002;2023-04-24T05:03:54;1.63;;;1.53;;
17345;SDS011;8790;53.590;10.002;2023-04-24T05:06:27;1.70;;;1.60;;
17345;SDS011;8790;53.590;10.002;2023-04-24T05:08:59;1.60;;;1.47;;
17345;SDS011;8790;53.590;10.002;2023-04-24T05:11:38;1.40;;;1.30;;
17345;SDS011;8790;53.590;10.002;2023-04-24T05:14:12;1.60;;;1.50;;
17345;SDS011;8790;53.590;10.002;2023-04-24T05:16:44;2.03;;;1.47;;
17345;SDS011;8790;53.590;10.002;2023-04-24T05:19:18;1.47;;;1.37;;
17345;SDS011;8790;53.590;10.002;2023-04-24T05:21:50;2.33;;;1.60;;
17345;SDS011;8790;53.590;10.002;2023-04-24T05:24:22;1.87;;;1.60;;
17345;SDS011;8790;53.590;10.002;2023-04-24T05:27:11;3.23;;;1.90;;
17345;SDS011;8790;53.590;10.002;2023-04-24T05:29:45;1.70;;;1.60;;
17345;SDS011;8790;53.590;10.002;2023-04-24T05:32:17;1.97;;;1.40;;
17345;SDS011;8790;53.590;10.002;2023-04-24T05:34:49;2.23;;;1.30;;
17345;SDS011;8790;53.590;10.002;2023-04-24T05:37:21;2.10;;;1.40;;
17345;SDS011;8790;53.590;10.002;2023-04-24T05:39:53;1.43;;;1.33;;
17345;SDS011;8790;53.590;10.002;2023-04-24T05:42:25;2.17;;;1.40;;
17345;SDS011;8790;53.590;10.002;2023-04-24T05:44:58;2.00;;;1.70;;
17345;SDS011;8790;53.590;10.002;2023-04-24T05:47:30;1.70;;;1.50;;
17345;SDS011;8790;53.590;10.002;2023-04-24T05:50:03;2.03;;;1.77;;
17345;SDS011;8790;53.590;10.002;2023-04-24T05:52:36;1.77;;;1.40;;
17345;SDS011;8790;53.590;10.002;2023-04-24T05:55:14;2.13;;;1.40;;
17345;SDS011;8790;53.590;10.002;2023-04-24T05:57:48;1.73;;;1.63;;
17345;SDS011;8790;53.590;10.002;2023-04-24T06:00:21;3.30;;;1.60;;
17345;SDS011;8790;53.590;10.002;2023-04-24T06:03:02;2.77;;;1.90;;
17345;SDS011;8790;53.590;10.002;2023-04-24T06:05:34;2.33;;;2.00;;
17345;SDS011;8790;53.590;10.002;2023-04-24T06:08:07;1.80;;;1.70;;
17345;SDS011;8790;53.590;10.002;2023-04-24T06:10:42;2.27;;;1.80;;
17345;SDS011;8790;53.590;10.002;2023-04-24T06:13:15;2.30;;;1.90;;
17345;SDS011;8790;53.590;10.002;2023-04-24T06:16:00;2.07;;;1.77;;
17345;SDS011;8790;53.590;10.002;2023-04-24T06:18:37;3.23;;;1.80;;
17345;SDS011;8790;53.590;10.002;2023-04-24T06:21:09;1.97;;;1.57;;
17345;SDS011;8790;53.590;10.002;2023-04-24T06:23:41;1.77;;;1.60;;
17345;SDS011;8790;53.590;10.002;2023-04-24T06:26:13;3.00;;;1.80;;
17345;SDS011;8790;53.590;10.002;2023-04-24T06:28:44;4.10;;;1.80;;
17345;SDS011;8790;53.590;10.002;2023-04-24T06:31:17;3.40;;;1.93;;
17345;SDS011;8790;53.590;10.002;2023-04-24T06:33:49;2.43;;;1.50;;
17345;SDS011;8790;53.590;10.002;2023-04-24T06:36:21;2.20;;;1.80;;
17345;SDS011;8790;53.590;10.002;2023-04-24T06:38:53;1.70;;;1.60;;
17345;SDS011;8790;53.590;10.002;2023-04-24T06:41:25;2.20;;;2.00;;
17345;SDS011;8790;53.590;10.002;2023-04-24T06:43:57;2.60;;;2.40;;
17345;SDS011;8790;53.590;10.002;2023-04-24T06:46:30;3.23;;;2.20;;
17345;SDS011;8790;53.590;10.002;2023-04-24T06:49:01;3.73;;;2.00;;
17345;SDS011;8790;53.590;10.002;2023-04-24T06:51:33;2.20;;;2.00;;
17345;SDS011;8790;53.590;10.002;2023-04-24T06:54:05;2.07;;;1.90;;
17345;SDS011;8790;53.590;10.002;2023-04-24T06:56:37;2.23;;;2.03;;
17345;SDS011;8790;53.590;10.002;2023-04-24T06:59:08;2.33;;;2.07;;
17345;SDS011;8790;53.590;10.002;2023-04-24T07:01:41;2.30;;;2.07;;
17345;SDS011;8790;53.590;10.002;2023-04-24T07:04:13;3.93;;;2.13;;
17345;SDS011;8790;53.590;10.002;2023-04-24T07:06:45;2.50;;;2.30;;
17345;SDS011;8790;53.590;10.002;2023-04-24T07:09:17;3.07;;;2.40;;
17345;SDS011;8790;53.590;10.002;2023-04-24T07:11:49;3.47;;;2.53;;
17345;SDS011;8790;53.590;10.002;2023-04-24T07:14:21;3.03;;;2.43;;
17345;SDS011;8790;53.590;10.002;2023-04-24T07:16:54;2.60;;;2.40;;
17345;SDS011;8790;53.590;10.002;2023-04-24T07:19:27;2.50;;;2.13;;
17345;SDS011;8790;53.590;10.002;2023-04-24T07:21:58;2.43;;;2.23;;
17345;SDS011;8790;53.590;10.002;2023-04-24T07:24:30;3.50;;;3.10;;
17345;SDS011;8790;53.590;10.002;2023-04-24T07:27:02;3.63;;;2.80;;
17345;SDS011;8790;53.590;10.002;2023-04-24T07:29:35;3.67;;;3.33;;
17345;SDS011;8790;53.590;10.002;2023-04-24T07:32:08;3.50;;;2.90;;
17345;SDS011;8790;53.590;10.002;2023-04-24T07:34:40;3.43;;;2.83;;
17345;SDS011;8790;53.590;10.002;2023-04-24T07:37:12;3.67;;;3.37;;
17345;SDS011;8790;53.590;10.002;2023-04-24T07:39:43;3.90;;;3.57;;
17345;SDS011;8790;53.590;10.002;2023-04-24T07:42:15;5.37;;;3.60;;
17345;SDS011;8790;53.590;10.002;2023-04-24T07:44:47;3.83;;;3.50;;
17345;SDS011;8790;53.590;10.002;2023-04-24T07:47:20;4.10;;;3.50;;
17345;SDS011;8790;53.590;10.002;2023-04-24T07:49:52;3.63;;;3.33;;
17345;SDS011;8790;53.590;10.002;2023-04-24T07:52:23;4.20;;;3.80;;
17345;SDS011;8790;53.590;10.002;2023-04-24T07:54:55;4.40;;;4.00;;
17345;SDS011;8790;53.590;10.002;2023-04-24T07:57:30;4.60;;;4.20;;
17345;SDS011;8790;53.590;10.002;2023-04-24T08:00:02;5.00;;;4.50;;
17345;SDS011;8790;53.590;10.002;2023-04-24T08:02:42;4.97;;;4.53;;
17345;SDS011;8790;53.590;10.002;2023-04-24T08:05:14;5.50;;;4.70;;
17345;SDS011;8790;53.590;10.002;2023-04-24T08:07:46;5.27;;;4.33;;
17345;SDS011;8790;53.590;10.002;2023-04-24T08:10:20;4.77;;;4.37;;
17345;SDS011;8790;53.590;10.002;2023-04-24T08:12:52;5.17;;;4.67;;
17345;SDS011;8790;53.590;10.002;2023-04-24T08:15:25;6.23;;;4.70;;
17345;SDS011;8790;53.590;10.002;2023-04-24T08:17:59;5.47;;;4.53;;
17345;SDS011;8790;53.590;10.002;2023-04-24T08:20:31;5.37;;;4.87;;
17345;SDS011;8790;53.590;10.002;2023-04-24T08:23:03;5.70;;;5.10;;
17345;SDS011;8790;53.590;10.002;2023-04-24T08:25:34;6.00;;;5.50;;
17345;SDS011;8790;53.590;10.002;2023-04-24T08:28:06;5.37;;;4.87;;
17345;SDS011;8790;53.590;10.002;2023-04-24T08:30:40;6.10;;;5.60;;
17345;SDS011;8790;53.590;10.002;2023-04-24T08:33:13;5.90;;;5.40;;
17345;SDS011;8790;53.590;10.002;2023-04-24T08:35:45;6.00;;;5.43;;
17345;SDS011;8790;53.590;10.002;2023-04-24T08:38:17;5.43;;;4.93;;
17345;SDS011;8790;53.590;10.002;2023-04-24T08:40:48;7.77;;;6.73;;
17345;SDS011;8790;53.590;10.002;2023-04-24T08:43:20;5.57;;;4.97;;
17345;SDS011;8790;53.590;10.002;2023-04-24T08:45:54;5.40;;;5.00;;
17345;SDS011;8790;53.590;10.002;2023-04-24T08:48:28;5.13;;;4.73;;
17345;SDS011;8790;53.590;10.002;2023-04-24T08:51:00;5.80;;;5.03;;
17345;SDS011;8790;53.590;10.002;2023-04-24T08:53:33;5.70;;;5.20;;
17345;SDS011;8790;53.590;10.002;2023-04-24T08:56:06;5.90;;;5.40;;
17345;SDS011;8790;53.590;10.002;2023-04-24T08:58:38;6.67;;;6.07;;
17345;SDS011;8790;53.590;10.002;2023-04-24T09:01:10;6.47;;;5.87;;
17345;SDS011;8790;53.590;10.002;2023-04-24T09:03:44;17.53;;;6.53;;
17345;SDS011;8790;53.590;10.002;2023-04-24T09:06:17;7.27;;;6.17;;
17345;SDS011;8790;53.590;10.002;2023-04-24T09:08:50;6.90;;;6.30;;
17345;SDS011;8790;53.590;10.002;2023-04-24T09:11:25;9.00;;;6.37;;
17345;SDS011;8790;53.590;10.002;2023-04-24T09:13:58;6.50;;;5.90;;
17345;SDS011;8790;53.590;10.002;2023-04-24T09:16:30;6.90;;;6.17;;
17345;SDS011;8790;53.590;10.002;2023-04-24T09:19:04;7.00;;;6.13;;
17345;SDS011;8790;53.590;10.002;2023-04-24T09:21:36;7.03;;;6.20;;
17345;SDS011;8790;53.590;10.002;2023-04-24T09:24:08;6.83;;;6.10;;
17345;SDS011;8790;53.590;10.002;2023-04-24T09:26:48;6.50;;;5.80;;
17345;SDS011;8790;53.590;10.002;2023-04-24T09:29:20;7.90;;;7.10;;
17345;SDS011;8790;53.590;10.002;2023-04-24T09:31:51;11.43;;;9.63;;
17345;SDS011;8790;53.590;10.002;2023-04-24T09:34:25;6.20;;;5.60;;
17345;SDS011;8790;53.590;10.002;2023-04-24T09:36:57;6.10;;;5.60;;
17345;SDS011;8790;53.590;10.002;2023-04-24T09:39:29;6.67;;;5.67;;
17345;SDS011;8790;53.590;10.002;2023-04-24T09:42:01;6.17;;;5.57;;
17345;SDS011;8790;53.590;10.002;2023-04-24T09:44:33;6.77;;;6.17;;
17345;SDS011;8790;53.590;10.002;2023-04-24T09:47:05;6.50;;;5.30;;
17345;SDS011;8790;53.590;10.002;2023-04-24T09:49:41;6.10;;;5.50;;
17345;SDS011;8790;53.590;10.002;2023-04-24T09:52:13;6.37;;;5.77;;
17345;SDS011;8790;53.590;10.002;2023-04-24T09:54:47;6.57;;;5.87;;
17345;SDS011;8790;53.590;10.002;2023-04-24T09:57:24;6.27;;;5.63;;
17345;SDS011;8790;53.590;10.002;2023-04-24T09:59:56;7.40;;;5.87;;
17345;SDS011;8790;53.590;10.002;2023-04-24T10:02:28;7.07;;;6.47;;
17345;SDS011;8790;53.590;10.002;2023-04-24T10:05:04;6.43;;;5.73;;
17345;SDS011;8790;53.590;10.002;2023-04-24T10:07:37;7.47;;;6.70;;
17345;SDS011;8790;53.590;10.002;2023-04-24T10:10:09;8.63;;;6.00;;
17345;SDS011;8790;53.590;10.002;2023-04-24T10:12:42;7.63;;;6.93;;
17345;SDS011;8790;53.590;10.002;2023-04-24T10:15:15;7.37;;;6.47;;
17345;SDS011;8790;53.590;10.002;2023-04-24T10:17:50;8.30;;;7.27;;
17345;SDS011;8790;53.590;10.002;2023-04-24T10:20:25;7.57;;;6.87;;
17345;SDS011;8790;53.590;10.002;2023-04-24T10:23:00;8.60;;;7.80;;
17345;SDS011;8790;53.590;10.002;2023-04-24T10:25:33;8.80;;;7.87;;
17345;SDS011;8790;53.590;10.002;2023-04-24T10:28:06;9.13;;;8.23;;
17345;SDS011;8790;53.590;10.002;2023-04-24T10:30:38;9.90;;;7.80;;
17345;SDS011;8790;53.590;10.002;2023-04-24T10:33:13;10.40;;;8.87;;
17345;SDS011;8790;53.590;10.002;2023-04-24T10:35:48;11.87;;;8.83;;
17345;SDS011;8790;53.590;10.002;2023-04-24T10:38:22;13.83;;;9.50;;
17345;SDS011;8790;53.590;10.002;2023-04-24T10:40:57;10.13;;;9.13;;
17345;SDS011;8790;53.590;10.002;2023-04-24T10:43:39;12.23;;;10.37;;
17345;SDS011;8790;53.590;10.002;2023-04-24T10:46:16;12.30;;;9.33;;
17345;SDS011;8790;53.590;10.002;2023-04-24T10:48:52;12.30;;;9.90;;
17345;SDS011;8790;53.590;10.002;2023-04-24T10:51:35;12.17;;;10.23;;
17345;SDS011;8790;53.590;10.002;2023-04-24T10:54:22;11.43;;;9.97;;
17345;SDS011;8790;53.590;10.002;2023-04-24T11:00:15;13.07;;;10.30;;
17345;SDS011;8790;53.590;10.002;2023-04-24T11:02:49;11.70;;;9.77;;
17345;SDS011;8790;53.590;10.002;2023-04-24T11:08:24;11.73;;;8.77;;
17345;SDS011;8790;53.590;10.002;2023-04-24T11:11:01;10.03;;;8.90;;
17345;SDS011;8790;53.590;10.002;2023-04-24T11:16:33;10.97;;;9.00;;
17345;SDS011;8790;53.590;10.002;2023-04-24T11:19:08;10.30;;;9.07;;
17345;SDS011;8790;53.590;10.002;2023-04-24T11:21:48;10.63;;;9.33;;
17345;SDS011;8790;53.590;10.002;2023-04-24T11:24:28;10.80;;;9.23;;
17345;SDS011;8790;53.590;10.002;2023-04-24T11:27:05;11.33;;;9.20;;
17345;SDS011;8790;53.590;10.002;2023-04-24T11:29:45;12.17;;;9.00;;
17345;SDS011;8790;53.590;10.002;2023-04-24T11:32:24;9.27;;;8.33;;
17345;SDS011;8790;53.590;10.002;2023-04-24T11:34:58;9.60;;;8.67;;
17345;SDS011;8790;53.590;10.002;2023-04-24T11:37:33;11.93;;;8.70;;
17345;SDS011;8790;53.590;10.002;2023-04-24T11:40:09;9.50;;;8.57;;
17345;SDS011;8790;53.590;10.002;2023-04-24T11:42:43;10.23;;;9.20;;
17345;SDS011;8790;53.590;10.002;2023-04-24T11:45:16;10.83;;;9.67;;
17345;SDS011;8790;53.590;10.002;2023-04-24T11:47:49;9.67;;;8.67;;
17345;SDS011;8790;53.590;10.002;2023-04-24T11:50:21;12.13;;;8.87;;
17345;SDS011;8790;53.590;10.002;2023-04-24T11:52:55;9.70;;;8.70;;
17345;SDS011;8790;53.590;10.002;2023-04-24T11:55:29;18.07;;;9.57;;
17345;SDS011;8790;53.590;10.002;2023-04-24T11:58:00;10.07;;;9.00;;
17345;SDS011;8790;53.590;10.002;2023-04-24T12:00:32;9.43;;;8.43;;
17345;SDS011;8790;53.590;10.002;2023-04-24T12:03:05;8.83;;;7.97;;
17345;SDS011;8790;53.590;10.002;2023-04-24T12:05:38;8.73;;;7.93;;
17345;SDS011;8790;53.590;10.002;2023-04-24T12:08:26;8.27;;;7.47;;
17345;SDS011;8790;53.590;10.002;2023-04-24T12:11:00;8.17;;;6.93;;
17345;SDS011;8790;53.590;10.002;2023-04-24T12:13:33;7.53;;;6.70;;
17345;SDS011;8790;53.590;10.002;2023-04-24T12:16:05;7.53;;;6.83;;
17345;SDS011;8790;53.590;10.002;2023-04-24T12:18:41;7.33;;;6.63;;
17345;SDS011;8790;53.590;10.002;2023-04-24T12:21:17;8.23;;;7.10;;
17345;SDS011;8790;53.590;10.002;2023-04-24T12:23:49;7.20;;;6.50;;
17345;SDS011;8790;53.590;10.002;2023-04-24T12:26:24;9.03;;;6.73;;
17345;SDS011;8790;53.590;10.002;2023-04-24T12:28:56;8.07;;;7.27;;
17345;SDS011;8790;53.590;10.002;2023-04-24T12:31:34;8.23;;;7.17;;
17345;SDS011;8790;53.590;10.002;2023-04-24T12:34:17;7.10;;;6.40;;
17345;SDS011;8790;53.590;10.002;2023-04-24T12:36:49;7.97;;;6.10;;
17345;SDS011;8790;53.590;10.002;2023-04-24T12:39:21;7.97;;;6.27;;
17345;SDS011;8790;53.590;10.002;2023-04-24T12:41:58;7.77;;;6.80;;
17345;SDS011;8790;53.590;10.002;2023-04-24T12:44:31;8.17;;;6.97;;
17345;SDS011;8790;53.590;10.002;2023-04-24T12:47:04;8.03;;;7.23;;
17345;SDS011;8790;53.590;10.002;2023-04-24T12:49:36;7.60;;;6.90;;
17345;SDS011;8790;53.590;10.002;2023-04-24T12:52:07;7.17;;;6.47;;
17345;SDS011;8790;53.590;10.002;2023-04-24T12:54:39;7.63;;;6.93;;
17345;SDS011;8790;53.590;10.002;2023-04-24T12:57:12;8.10;;;7.30;;
17345;SDS011;8790;53.590;10.002;2023-04-24T12:59:44;7.77;;;7.00;;
17345;SDS011;8790;53.590;10.002;2023-04-24T13:02:16;8.60;;;7.13;;
17345;SDS011;8790;53.590;10.002;2023-04-24T13:04:48;7.83;;;6.97;;
17345;SDS011;8790;53.590;10.002;2023-04-24T13:07:20;7.27;;;6.57;;
17345;SDS011;8790;53.590;10.002;2023-04-24T13:09:55;7.23;;;6.53;;
17345;SDS011;8790;53.590;10.002;2023-04-24T13:12:28;7.77;;;6.67;;
17345;SDS011;8790;53.590;10.002;2023-04-24T13:15:00;6.73;;;6.13;;
17345;SDS011;8790;53.590;10.002;2023-04-24T13:17:33;6.90;;;6.20;;
17345;SDS011;8790;53.590;10.002;2023-04-24T13:20:05;8.10;;;6.70;;
17345;SDS011;8790;53.590;10.002;2023-04-24T13:22:37;9.60;;;6.77;;
17345;SDS011;8790;53.590;10.002;2023-04-24T13:25:09;12.17;;;10.30;;
17345;SDS011;8790;53.590;10.002;2023-04-24T13:27:42;12.40;;;7.13;;
17345;SDS011;8790;53.590;10.002;2023-04-24T13:30:14;9.83;;;6.23;;
17345;SDS011;8790;53.590;10.002;2023-04-24T13:32:53;7.43;;;6.30;;
17345;SDS011;8790;53.590;10.002;2023-04-24T13:35:25;6.43;;;5.83;;
17345;SDS011;8790;53.590;10.002;2023-04-24T13:37:57;6.07;;;5.47;;
17345;SDS011;8790;53.590;10.002;2023-04-24T13:40:31;5.87;;;5.37;;
17345;SDS011;8790;53.590;10.002;2023-04-24T13:43:04;6.30;;;5.80;;
17345;SDS011;8790;53.590;10.002;2023-04-24T13:45:36;7.83;;;5.87;;
17345;SDS011;8790;53.590;10.002;2023-04-24T13:48:07;6.10;;;5.50;;
17345;SDS011;8790;53.590;10.002;2023-04-24T13:50:40;5.97;;;5.47;;
17345;SDS011;8790;53.590;10.002;2023-04-24T13:53:12;8.93;;;5.53;;
17345;SDS011;8790;53.590;10.002;2023-04-24T13:55:43;6.13;;;5.53;;
17345;SDS011;8790;53.590;10.002;2023-04-24T13:58:17;6.60;;;5.53;;
17345;SDS011;8790;53.590;10.002;2023-04-24T14:00:48;6.37;;;5.43;;
17345;SDS011;8790;53.590;10.002;2023-04-24T14:03:20;6.40;;;4.90;;
17345;SDS011;8790;53.590;10.002;2023-04-24T14:05:52;5.97;;;5.40;;
17345;SDS011;8790;53.590;10.002;2023-04-24T14:08:24;6.20;;;5.33;;
17345;SDS011;8790;53.590;10.002;2023-04-24T14:10:56;5.90;;;5.37;;
17345;SDS011;8790;53.590;10.002;2023-04-24T14:13:29;5.83;;;5.33;;
17345;SDS011;8790;53.590;10.002;2023-04-24T14:16:01;6.23;;;5.63;;
17345;SDS011;8790;53.590;10.002;2023-04-24T14:18:33;6.80;;;5.43;;
17345;SDS011;8790;53.590;10.002;2023-04-24T14:21:06;6.00;;;5.40;;
17345;SDS011;8790;53.590;10.002;2023-04-24T14:23:38;5.83;;;5.30;;
17345;SDS011;8790;53.590;10.002;2023-04-24T14:26:10;5.73;;;5.23;;
17345;SDS011;8790;53.590;10.002;2023-04-24T14:28:43;5.90;;;5.30;;
17345;SDS011;8790;53.590;10.002;2023-04-24T14:31:15;10.27;;;9.27;;
17345;SDS011;8790;53.590;10.002;2023-04-24T14:33:46;9.77;;;7.47;;
17345;SDS011;8790;53.590;10.002;2023-04-24T14:36:18;6.17;;;5.50;;
17345;SDS011;8790;53.590;10.002;2023-04-24T14:38:50;5.80;;;5.30;;
17345;SDS011;8790;53.590;10.002;2023-04-24T14:41:22;6.60;;;5.83;;
17345;SDS011;8790;53.590;10.002;2023-04-24T14:43:55;6.93;;;6.33;;
17345;SDS011;8790;53.590;10.002;2023-04-24T14:46:26;6.87;;;6.10;;
17345;SDS011;8790;53.590;10.002;2023-04-24T14:48:58;7.07;;;6.37;;
17345;SDS011;8790;53.590;10.002;2023-04-24T14:51:30;8.00;;;7.10;;
17345;SDS011;8790;53.590;10.002;2023-04-24T14:54:02;7.07;;;6.47;;
17345;SDS011;8790;53.590;10.002;2023-04-24T14:56:34;6.83;;;6.20;;
17345;SDS011;8790;53.590;10.002;2023-04-24T14:59:07;7.73;;;6.53;;
17345;SDS011;8790;53.590;10.002;2023-04-24T15:01:39;7.70;;;7.00;;
17345;SDS011;8790;53.590;10.002;2023-04-24T15:04:11;9.00;;;7.40;;
17345;SDS011;8790;53.590;10.002;2023-04-24T15:06:42;8.47;;;7.67;;
17345;SDS011;8790;53.590;10.002;2023-04-24T15:09:14;8.40;;;7.60;;
17345;SDS011;8790;53.590;10.002;2023-04-24T15:11:46;7.13;;;6.30;;
17345;SDS011;8790;53.590;10.002;2023-04-24T15:14:19;6.30;;;5.70;;
17345;SDS011;8790;53.590;10.002;2023-04-24T15:16:51;6.60;;;5.90;;
17345;SDS011;8790;53.590;10.002;2023-04-24T15:19:23;7.80;;;6.10;;
17345;SDS011;8790;53.590;10.002;2023-04-24T15:21:55;6.20;;;5.53;;
17345;SDS011;8790;53.590;10.002;2023-04-24T15:24:26;5.03;;;4.57;;
17345;SDS011;8790;53.590;10.002;2023-04-24T15:26:58;3.50;;;3.20;;
17345;SDS011;8790;53.590;10.002;2023-04-24T15:29:32;3.07;;;2.77;;
17345;SDS011;8790;53.590;10.002;2023-04-24T15:32:04;2.60;;;2.40;;